createdAt,value
2018-03-31T00:00:53.997Z,8.91
2018-03-31T00:01:53.949Z,8.88
2018-03-31T00:02:53.846Z,9.00
2018-03-31T00:03:53.768Z,9.06
2018-03-31T00:04:53.690Z,9.12
2018-03-31T00:05:53.624Z,9.05
2018-03-31T00:06:53.535Z,9.06
2018-03-31T00:07:53.470Z,9.09
2018-03-31T00:08:53.383Z,9.09
2018-03-31T00:09:53.311Z,9.05
2018-03-31T00:10:53.229Z,9.13
2018-03-31T00:11:53.160Z,9.12
2018-03-31T00:12:53.072Z,9.09
2018-03-31T00:13:53.008Z,9.10
2018-03-31T00:14:52.922Z,9.13
2018-03-31T00:15:53.847Z,9.19
2018-03-31T00:16:52.763Z,9.13
2018-03-31T00:17:52.692Z,9.12
2018-03-31T00:18:52.611Z,9.14
2018-03-31T00:19:52.539Z,9.13
2018-03-31T00:20:52.455Z,9.17
2018-03-31T00:21:52.390Z,9.14
2018-03-31T00:22:52.303Z,9.17
2018-03-31T00:23:52.234Z,9.17
2018-03-31T00:24:52.155Z,9.16
2018-03-31T00:25:52.078Z,9.19
2018-03-31T00:26:51.996Z,9.22
2018-03-31T00:27:51.925Z,9.12
2018-03-31T00:28:51.838Z,9.17
2018-03-31T00:29:51.791Z,9.28
2018-03-31T00:30:51.687Z,9.24
2018-03-31T00:31:51.614Z,9.24
2018-03-31T00:32:51.544Z,9.24
2018-03-31T00:33:51.461Z,9.19
2018-03-31T00:34:51.378Z,9.13
2018-03-31T00:35:51.307Z,9.17
2018-03-31T00:36:51.226Z,9.12
2018-03-31T00:37:51.156Z,9.09
2018-03-31T00:38:51.126Z,9.06
2018-03-31T00:39:51.001Z,9.03
2018-03-31T00:40:50.918Z,9.06
2018-03-31T00:41:50.846Z,9.09
2018-03-31T00:42:50.763Z,9.17
2018-03-31T00:43:50.699Z,9.10
2018-03-31T00:44:50.608Z,9.09
2018-03-31T00:45:50.573Z,9.13
2018-03-31T00:46:50.455Z,9.14
2018-03-31T00:47:50.385Z,9.02
2018-03-31T00:48:50.301Z,9.03
2018-03-31T00:49:50.229Z,9.10
2018-03-31T00:50:50.148Z,9.17
2018-03-31T00:51:50.076Z,9.10
2018-03-31T00:52:49.993Z,9.16
2018-03-31T00:53:49.923Z,9.20
2018-03-31T00:54:49.838Z,9.19
2018-03-31T00:55:49.768Z,9.12
2018-03-31T00:56:49.687Z,9.17
2018-03-31T00:57:49.622Z,9.13
2018-03-31T00:58:49.531Z,9.16
2018-03-31T00:59:49.464Z,9.03
2018-03-31T01:00:49.377Z,9.14
2018-03-31T01:01:49.302Z,9.16
2018-03-31T01:02:49.221Z,9.14
2018-03-31T01:03:49.153Z,9.13
2018-03-31T01:04:49.068Z,9.09
2018-03-31T01:05:49.000Z,9.10
2018-03-31T01:06:48.915Z,9.12
2018-03-31T01:07:48.839Z,9.00
2018-03-31T01:08:48.758Z,9.12
2018-03-31T01:09:48.690Z,9.13
2018-03-31T01:10:48.606Z,9.02
2018-03-31T01:11:48.536Z,9.14
2018-03-31T01:12:48.450Z,9.12
2018-03-31T01:13:48.382Z,9.02
2018-03-31T01:14:48.300Z,9.09
2018-03-31T01:15:48.227Z,9.05
2018-03-31T01:16:48.144Z,9.06
2018-03-31T01:17:48.074Z,9.06
2018-03-31T01:18:47.991Z,9.06
2018-03-31T01:19:47.920Z,9.05
2018-03-31T01:20:47.835Z,9.05
2018-03-31T01:21:47.768Z,9.00
2018-03-31T01:22:47.683Z,9.06
2018-03-31T01:23:47.611Z,8.98
2018-03-31T01:24:47.527Z,8.97
2018-03-31T01:25:48.462Z,9.02
2018-03-31T01:26:47.375Z,8.98
2018-03-31T01:27:47.302Z,9.09
2018-03-31T01:28:47.217Z,8.98
2018-03-31T01:29:47.159Z,9.03
2018-03-31T01:30:47.069Z,9.00
2018-03-31T01:31:46.994Z,9.00
2018-03-31T01:32:46.912Z,8.97
2018-03-31T01:33:46.839Z,8.94
2018-03-31T01:34:46.764Z,8.91
2018-03-31T01:35:46.681Z,8.91
2018-03-31T01:36:46.612Z,9.02
2018-03-31T01:37:46.528Z,8.94
2018-03-31T01:38:46.458Z,8.98
2018-03-31T01:39:46.373Z,8.91
2018-03-31T01:40:46.305Z,8.88
2018-03-31T01:41:46.225Z,8.88
2018-03-31T01:42:46.152Z,8.84
2018-03-31T01:43:46.064Z,8.84
2018-03-31T01:44:45.995Z,8.95
2018-03-31T01:45:45.916Z,8.91
2018-03-31T01:46:45.843Z,8.77
2018-03-31T01:47:45.756Z,8.91
2018-03-31T01:48:45.688Z,8.80
2018-03-31T01:49:45.603Z,8.75
2018-03-31T01:50:45.529Z,8.77
2018-03-31T01:51:45.450Z,8.75
2018-03-31T01:52:46.380Z,8.82
2018-03-31T01:53:45.296Z,8.76
2018-03-31T01:54:45.225Z,8.77
2018-03-31T01:55:45.139Z,8.80
2018-03-31T01:56:45.069Z,8.77
2018-03-31T01:57:44.987Z,8.84
2018-03-31T01:58:44.928Z,8.79
2018-03-31T01:59:44.834Z,8.76
2018-03-31T02:00:44.760Z,8.80
2018-03-31T02:01:44.682Z,8.80
2018-03-31T02:02:44.610Z,8.82
2018-03-31T02:03:44.526Z,8.85
2018-03-31T02:04:44.456Z,8.77
2018-03-31T02:05:44.369Z,8.75
2018-03-31T02:06:44.305Z,8.79
2018-03-31T02:07:44.217Z,8.84
2018-03-31T02:08:44.148Z,8.76
2018-03-31T02:09:44.061Z,8.68
2018-03-31T02:10:43.993Z,8.79
2018-03-31T02:11:43.909Z,8.73
2018-03-31T02:12:43.836Z,8.80
2018-03-31T02:13:43.752Z,8.66
2018-03-31T02:14:43.689Z,8.76
2018-03-31T02:15:43.600Z,8.72
2018-03-31T02:16:43.533Z,8.70
2018-03-31T02:17:43.446Z,8.73
2018-03-31T02:18:43.377Z,8.68
2018-03-31T02:19:43.293Z,8.73
2018-03-31T02:20:43.220Z,8.70
2018-03-31T02:21:43.139Z,8.65
2018-03-31T02:22:43.069Z,8.73
2018-03-31T02:23:42.988Z,8.61
2018-03-31T02:24:42.912Z,8.65
2018-03-31T02:25:42.825Z,8.65
2018-03-31T02:26:42.758Z,8.62
2018-03-31T02:27:42.674Z,8.65
2018-03-31T02:28:42.602Z,8.65
2018-03-31T02:29:42.520Z,8.66
2018-03-31T02:30:42.455Z,8.62
2018-03-31T02:31:42.368Z,8.69
2018-03-31T02:32:42.298Z,8.65
2018-03-31T02:33:42.209Z,8.62
2018-03-31T02:34:42.145Z,8.69
2018-03-31T02:35:42.059Z,8.60
2018-03-31T02:36:41.989Z,8.65
2018-03-31T02:37:41.908Z,8.65
2018-03-31T02:38:41.842Z,8.62
2018-03-31T02:39:41.756Z,8.57
2018-03-31T02:40:41.682Z,8.61
2018-03-31T02:41:41.594Z,8.54
2018-03-31T02:42:41.526Z,8.51
2018-03-31T02:43:41.439Z,8.55
2018-03-31T02:44:41.371Z,8.48
2018-03-31T02:45:41.288Z,8.57
2018-03-31T02:46:41.219Z,8.55
2018-03-31T02:47:41.130Z,8.52
2018-03-31T02:48:41.062Z,8.52
2018-03-31T02:49:40.980Z,8.50
2018-03-31T02:50:40.907Z,8.47
2018-03-31T02:51:40.824Z,8.47
2018-03-31T02:52:40.758Z,8.43
2018-03-31T02:53:40.671Z,8.44
2018-03-31T02:54:40.608Z,8.39
2018-03-31T02:55:40.517Z,8.48
2018-03-31T02:56:40.448Z,8.42
2018-03-31T02:57:40.359Z,8.39
2018-03-31T02:58:40.292Z,8.40
2018-03-31T02:59:40.205Z,8.36
2018-03-31T03:00:40.143Z,8.40
2018-03-31T03:01:40.054Z,8.36
2018-03-31T03:02:39.982Z,8.37
2018-03-31T03:03:39.896Z,8.36
2018-03-31T03:04:39.829Z,8.32
2018-03-31T03:05:39.744Z,8.42
2018-03-31T03:06:39.674Z,8.37
2018-03-31T03:07:39.584Z,8.43
2018-03-31T03:08:39.518Z,8.37
2018-03-31T03:09:39.436Z,8.36
2018-03-31T03:10:39.363Z,8.36
2018-03-31T03:11:39.277Z,8.29
2018-03-31T03:12:39.206Z,8.27
2018-03-31T03:13:39.125Z,8.30
2018-03-31T03:14:39.057Z,8.30
2018-03-31T03:15:38.966Z,8.36
2018-03-31T03:16:38.899Z,8.25
2018-03-31T03:17:38.814Z,8.25
2018-03-31T03:18:38.746Z,8.30
2018-03-31T03:19:38.666Z,8.18
2018-03-31T03:20:38.595Z,8.29
2018-03-31T03:21:38.506Z,8.24
2018-03-31T03:22:38.443Z,8.19
2018-03-31T03:23:38.350Z,8.18
2018-03-31T03:24:38.294Z,8.12
2018-03-31T03:25:38.193Z,8.18
2018-03-31T03:26:38.122Z,8.19
2018-03-31T03:27:38.050Z,8.22
2018-03-31T03:28:37.972Z,8.15
2018-03-31T03:29:37.884Z,8.09
2018-03-31T03:30:37.820Z,8.09
2018-03-31T03:31:37.735Z,8.19
2018-03-31T03:32:37.661Z,8.19
2018-03-31T03:33:37.578Z,8.14
2018-03-31T03:34:37.504Z,8.17
2018-03-31T03:35:37.418Z,8.15
2018-03-31T03:36:37.353Z,8.07
2018-03-31T03:37:37.267Z,8.01
2018-03-31T03:38:37.199Z,8.03
2018-03-31T03:39:37.116Z,8.07
2018-03-31T03:40:37.041Z,8.01
2018-03-31T03:41:36.958Z,7.99
2018-03-31T03:42:36.889Z,7.99
2018-03-31T03:43:36.800Z,7.97
2018-03-31T03:44:36.733Z,7.99
2018-03-31T03:45:36.652Z,8.01
2018-03-31T03:46:36.582Z,7.96
2018-03-31T03:47:36.492Z,8.01
2018-03-31T03:48:36.422Z,8.00
2018-03-31T03:49:36.342Z,8.04
2018-03-31T03:50:36.267Z,8.04
2018-03-31T03:51:36.187Z,8.07
2018-03-31T03:52:37.111Z,7.97
2018-03-31T03:53:36.031Z,7.97
2018-03-31T03:54:35.961Z,8.00
2018-03-31T03:55:35.878Z,7.94
2018-03-31T03:56:35.804Z,7.99
2018-03-31T03:57:35.717Z,7.99
2018-03-31T03:58:35.649Z,7.91
2018-03-31T03:59:35.562Z,8.03
2018-03-31T04:00:35.494Z,7.96
2018-03-31T04:01:35.410Z,7.99
2018-03-31T04:02:35.338Z,7.99
2018-03-31T04:03:35.256Z,7.99
2018-03-31T04:04:35.191Z,8.01
2018-03-31T04:05:35.097Z,7.97
2018-03-31T04:06:35.031Z,7.96
2018-03-31T04:07:34.939Z,7.91
2018-03-31T04:08:34.872Z,7.94
2018-03-31T04:09:34.789Z,7.90
2018-03-31T04:10:35.718Z,7.86
2018-03-31T04:11:34.634Z,7.90
2018-03-31T04:12:34.568Z,7.93
2018-03-31T04:13:34.478Z,7.91
2018-03-31T04:14:35.410Z,7.82
2018-03-31T04:15:34.334Z,7.96
2018-03-31T04:16:34.253Z,7.82
2018-03-31T04:17:34.168Z,7.85
2018-03-31T04:18:34.100Z,7.83
2018-03-31T04:19:34.011Z,7.82
2018-03-31T04:20:33.945Z,7.85
2018-03-31T04:21:33.858Z,7.88
2018-03-31T04:22:33.790Z,7.82
2018-03-31T04:23:33.705Z,7.82
2018-03-31T04:24:33.633Z,7.78
2018-03-31T04:25:33.545Z,7.83
2018-03-31T04:26:33.479Z,7.86
2018-03-31T04:27:33.392Z,7.86
2018-03-31T04:28:33.392Z,7.85
2018-03-31T04:29:33.236Z,7.78
2018-03-31T04:30:33.197Z,7.76
2018-03-31T04:31:33.080Z,7.81
2018-03-31T04:32:33.108Z,7.73
2018-03-31T04:33:32.928Z,7.79
2018-03-31T04:34:32.859Z,7.79
2018-03-31T04:35:32.776Z,7.78
2018-03-31T04:36:32.728Z,7.76
2018-03-31T04:37:32.615Z,7.78
2018-03-31T04:38:32.642Z,7.85
2018-03-31T04:39:32.463Z,7.86
2018-03-31T04:40:32.448Z,7.78
2018-03-31T04:41:32.306Z,7.83
2018-03-31T04:42:32.252Z,7.83
2018-03-31T04:43:32.152Z,7.83
2018-03-31T04:44:32.082Z,7.81
2018-03-31T04:45:31.996Z,7.73
2018-03-31T04:46:31.929Z,7.86
2018-03-31T04:47:31.841Z,7.81
2018-03-31T04:48:31.775Z,7.81
2018-03-31T04:49:31.694Z,7.85
2018-03-31T04:50:31.692Z,7.75
2018-03-31T04:51:31.533Z,7.75
2018-03-31T04:52:31.499Z,7.85
2018-03-31T04:53:31.378Z,7.82
2018-03-31T04:54:31.411Z,7.76
2018-03-31T04:55:31.227Z,7.79
2018-03-31T04:56:31.217Z,7.67
2018-03-31T04:57:31.067Z,7.63
2018-03-31T04:58:31.027Z,7.72
2018-03-31T04:59:30.911Z,7.70
2018-03-31T05:00:30.937Z,7.79
2018-03-31T05:01:31.417Z,7.72
2018-03-31T05:02:30.746Z,7.76
2018-03-31T05:03:30.601Z,7.67
2018-03-31T05:04:30.556Z,7.70
2018-03-31T05:05:30.450Z,7.67
2018-03-31T05:06:30.467Z,7.70
2018-03-31T05:07:30.290Z,7.70
2018-03-31T05:08:30.278Z,7.64
2018-03-31T05:09:30.134Z,7.73
2018-03-31T05:10:30.069Z,7.67
2018-03-31T05:11:29.983Z,7.73
2018-03-31T05:12:29.998Z,7.67
2018-03-31T05:13:29.830Z,7.67
2018-03-31T05:14:29.803Z,7.68
2018-03-31T05:15:29.668Z,7.70
2018-03-31T05:16:29.612Z,7.64
2018-03-31T05:17:29.513Z,7.70
2018-03-31T05:18:29.524Z,7.67
2018-03-31T05:19:29.357Z,7.67
2018-03-31T05:20:29.329Z,7.75
2018-03-31T05:21:29.204Z,7.70
2018-03-31T05:22:29.242Z,7.70
2018-03-31T05:23:29.048Z,7.70
2018-03-31T05:24:29.049Z,7.72
2018-03-31T05:25:28.888Z,7.73
2018-03-31T05:26:28.859Z,7.67
2018-03-31T05:27:28.735Z,7.67
2018-03-31T05:28:28.666Z,7.68
2018-03-31T05:29:28.585Z,7.67
2018-03-31T05:30:28.577Z,7.67
2018-03-31T05:31:28.430Z,7.63
2018-03-31T05:32:28.384Z,7.70
2018-03-31T05:33:28.272Z,7.72
2018-03-31T05:34:28.201Z,7.59
2018-03-31T05:35:28.116Z,7.64
2018-03-31T05:36:28.104Z,7.67
2018-03-31T05:37:27.966Z,7.70
2018-03-31T05:38:27.922Z,7.68
2018-03-31T05:39:27.809Z,7.63
2018-03-31T05:40:27.823Z,7.67
2018-03-31T05:41:27.831Z,7.68
2018-03-31T05:42:27.631Z,7.68
2018-03-31T05:43:27.701Z,7.64
2018-03-31T05:44:27.431Z,7.67
2018-03-31T05:45:27.341Z,7.68
2018-03-31T05:46:27.350Z,7.68
2018-03-31T05:47:27.181Z,7.73
2018-03-31T05:48:27.159Z,7.68
2018-03-31T05:49:27.029Z,7.67
2018-03-31T05:50:26.962Z,7.70
2018-03-31T05:51:26.873Z,7.70
2018-03-31T05:52:26.802Z,7.63
2018-03-31T05:53:26.722Z,7.64
2018-03-31T05:54:26.689Z,7.60
2018-03-31T05:55:26.565Z,7.62
2018-03-31T05:56:26.602Z,7.45
2018-03-31T05:57:26.412Z,7.47
2018-03-31T05:58:26.340Z,7.49
2018-03-31T05:59:26.254Z,7.47
2018-03-31T06:00:26.215Z,7.48
2018-03-31T06:01:26.100Z,7.45
2018-03-31T06:02:26.030Z,7.48
2018-03-31T06:03:25.943Z,7.45
2018-03-31T06:04:25.936Z,7.45
2018-03-31T06:05:25.782Z,7.53
2018-03-31T06:06:25.747Z,7.57
2018-03-31T06:07:25.634Z,7.49
2018-03-31T06:08:25.655Z,7.64
2018-03-31T06:09:25.480Z,7.60
2018-03-31T06:10:25.463Z,7.57
2018-03-31T06:11:25.328Z,7.52
2018-03-31T06:12:25.272Z,7.57
2018-03-31T06:13:25.167Z,7.52
2018-03-31T06:14:25.181Z,7.60
2018-03-31T06:15:25.012Z,7.57
2018-03-31T06:16:24.995Z,7.56
2018-03-31T06:17:24.878Z,7.57
2018-03-31T06:18:24.798Z,7.55
2018-03-31T06:19:24.705Z,7.67
2018-03-31T06:20:24.710Z,7.67
2018-03-31T06:21:24.545Z,7.67
2018-03-31T06:22:24.519Z,7.73
2018-03-31T06:23:24.395Z,7.72
2018-03-31T06:24:24.428Z,7.63
2018-03-31T06:25:24.237Z,7.73
2018-03-31T06:26:24.238Z,7.73
2018-03-31T06:27:24.078Z,7.78
2018-03-31T06:28:24.009Z,7.79
2018-03-31T06:29:23.922Z,7.81
2018-03-31T06:30:23.854Z,7.81
2018-03-31T06:31:23.772Z,7.83
2018-03-31T06:32:23.765Z,7.82
2018-03-31T06:33:23.612Z,7.81
2018-03-31T06:34:23.542Z,7.97
2018-03-31T06:35:23.458Z,7.85
2018-03-31T06:36:23.485Z,7.91
2018-03-31T06:37:23.309Z,7.97
2018-03-31T06:38:23.234Z,7.91
2018-03-31T06:39:23.154Z,7.94
2018-03-31T06:40:23.076Z,7.90
2018-03-31T06:41:22.994Z,7.91
2018-03-31T06:42:23.011Z,7.96
2018-03-31T06:43:22.839Z,7.90
2018-03-31T06:44:23.847Z,7.93
2018-03-31T06:45:22.690Z,7.91
2018-03-31T06:46:29.389Z,7.90
2018-03-31T06:47:22.529Z,7.93
2018-03-31T06:48:24.486Z,7.91
2018-03-31T06:49:22.371Z,7.97
2018-03-31T06:50:22.305Z,7.93
2018-03-31T06:51:22.219Z,7.96
2018-03-31T06:52:22.261Z,7.96
2018-03-31T06:53:22.062Z,7.91
2018-03-31T06:54:22.068Z,7.97
2018-03-31T06:55:21.908Z,8.00
2018-03-31T06:56:22.907Z,7.96
2018-03-31T06:57:21.752Z,8.01
2018-03-31T06:58:21.690Z,8.01
2018-03-31T06:59:21.606Z,8.00
2018-03-31T07:00:21.524Z,8.01
2018-03-31T07:01:21.441Z,8.04
2018-03-31T07:02:21.375Z,8.12
2018-03-31T07:03:21.283Z,8.11
2018-03-31T07:04:21.218Z,8.18
2018-03-31T07:05:21.321Z,8.11
2018-03-31T07:06:21.087Z,8.09
2018-03-31T07:07:20.975Z,8.19
2018-03-31T07:08:20.905Z,8.17
2018-03-31T07:09:20.821Z,8.27
2018-03-31T07:10:20.753Z,8.21
2018-03-31T07:11:20.668Z,8.17
2018-03-31T07:12:20.599Z,8.22
2018-03-31T07:13:20.510Z,8.21
2018-03-31T07:14:20.462Z,8.24
2018-03-31T07:15:20.358Z,8.27
2018-03-31T07:16:20.369Z,8.22
2018-03-31T07:17:20.202Z,8.19
2018-03-31T07:18:20.181Z,8.24
2018-03-31T07:19:20.046Z,8.25
2018-03-31T07:20:19.992Z,8.33
2018-03-31T07:21:19.894Z,8.22
2018-03-31T07:22:19.914Z,8.24
2018-03-31T07:23:19.737Z,8.29
2018-03-31T07:24:19.709Z,8.29
2018-03-31T07:25:19.581Z,8.22
2018-03-31T07:26:19.619Z,8.32
2018-03-31T07:27:19.441Z,8.24
2018-03-31T07:28:19.427Z,8.27
2018-03-31T07:29:19.268Z,8.24
2018-03-31T07:30:19.239Z,8.33
2018-03-31T07:31:19.117Z,8.25
2018-03-31T07:32:19.046Z,8.37
2018-03-31T07:33:18.963Z,8.27
2018-03-31T07:34:18.958Z,8.39
2018-03-31T07:35:18.805Z,8.27
2018-03-31T07:36:18.768Z,8.37
2018-03-31T07:37:18.652Z,8.33
2018-03-31T07:38:18.673Z,8.29
2018-03-31T07:39:18.497Z,8.40
2018-03-31T07:40:18.479Z,8.29
2018-03-31T07:41:18.344Z,8.32
2018-03-31T07:42:18.275Z,8.39
2018-03-31T07:43:18.191Z,8.39
2018-03-31T07:44:18.200Z,8.43
2018-03-31T07:45:18.036Z,8.34
2018-03-31T07:46:18.008Z,8.42
2018-03-31T07:47:17.878Z,8.43
2018-03-31T07:48:17.919Z,8.50
2018-03-31T07:49:17.724Z,8.43
2018-03-31T07:50:17.738Z,8.48
2018-03-31T07:51:17.569Z,8.48
2018-03-31T07:52:17.535Z,8.54
2018-03-31T07:53:17.413Z,8.48
2018-03-31T07:54:17.445Z,8.57
2018-03-31T07:55:17.261Z,8.51
2018-03-31T07:56:17.251Z,8.51
2018-03-31T07:57:17.107Z,8.60
2018-03-31T07:58:17.060Z,8.51
2018-03-31T07:59:16.950Z,8.52
2018-03-31T08:00:16.883Z,8.57
2018-03-31T08:01:16.797Z,8.65
2018-03-31T08:02:16.735Z,8.65
2018-03-31T08:03:16.642Z,8.69
2018-03-31T08:04:16.581Z,8.66
2018-03-31T08:05:16.494Z,8.61
2018-03-31T08:06:16.423Z,8.62
2018-03-31T08:07:16.332Z,8.66
2018-03-31T08:08:16.266Z,8.65
2018-03-31T08:09:16.180Z,8.58
2018-03-31T08:10:16.112Z,8.62
2018-03-31T08:11:16.025Z,8.65
2018-03-31T08:12:15.955Z,8.62
2018-03-31T08:13:15.870Z,8.75
2018-03-31T08:14:15.838Z,8.72
2018-03-31T08:15:15.713Z,8.76
2018-03-31T08:16:15.755Z,8.80
2018-03-31T08:17:15.563Z,8.80
2018-03-31T08:18:15.556Z,8.84
2018-03-31T08:19:15.405Z,8.88
2018-03-31T08:20:15.367Z,9.03
2018-03-31T08:21:15.248Z,8.95
2018-03-31T08:22:15.278Z,8.98
2018-03-31T08:23:15.097Z,9.00
2018-03-31T08:24:15.092Z,9.03
2018-03-31T08:25:14.944Z,9.02
2018-03-31T08:26:14.875Z,9.16
2018-03-31T08:27:14.792Z,9.20
2018-03-31T08:28:14.719Z,9.14
2018-03-31T08:29:14.632Z,9.32
2018-03-31T08:30:14.616Z,9.37
2018-03-31T08:31:14.482Z,9.43
2018-03-31T08:32:15.340Z,9.45
2018-03-31T08:33:14.330Z,9.63
2018-03-31T08:34:14.263Z,9.65
2018-03-31T08:35:14.174Z,9.61
2018-03-31T08:36:14.103Z,9.65
2018-03-31T08:37:14.022Z,9.64
2018-03-31T08:38:13.950Z,9.55
2018-03-31T08:39:13.861Z,9.65
2018-03-31T08:40:13.799Z,9.60
2018-03-31T08:41:13.713Z,9.50
2018-03-31T08:42:13.646Z,9.61
2018-03-31T08:43:13.562Z,9.64
2018-03-31T08:44:13.578Z,9.61
2018-03-31T08:45:13.405Z,9.70
2018-03-31T08:46:13.383Z,9.64
2018-03-31T08:47:13.369Z,9.71
2018-03-31T08:48:13.195Z,9.70
2018-03-31T08:49:13.095Z,9.68
2018-03-31T08:50:13.036Z,9.72
2018-03-31T08:51:12.944Z,9.68
2018-03-31T08:52:12.915Z,9.67
2018-03-31T08:53:12.849Z,9.68
2018-03-31T08:54:12.828Z,9.71
2018-03-31T08:55:12.636Z,9.67
2018-03-31T08:56:12.631Z,9.56
2018-03-31T08:57:12.491Z,9.67
2018-03-31T08:58:12.442Z,9.68
2018-03-31T08:59:12.331Z,9.53
2018-03-31T09:00:12.353Z,9.58
2018-03-31T09:01:12.178Z,9.64
2018-03-31T09:02:12.159Z,9.61
2018-03-31T09:03:12.026Z,9.52
2018-03-31T09:04:11.955Z,9.60
2018-03-31T09:05:11.872Z,9.68
2018-03-31T09:06:11.880Z,9.68
2018-03-31T09:07:11.724Z,9.68
2018-03-31T09:08:11.650Z,9.67
2018-03-31T09:09:11.630Z,9.68
2018-03-31T09:10:11.496Z,9.67
2018-03-31T09:11:11.426Z,9.65
2018-03-31T09:12:11.335Z,9.75
2018-03-31T09:13:11.312Z,9.78
2018-03-31T09:14:11.181Z,9.72
2018-03-31T09:15:11.114Z,9.68
2018-03-31T09:16:11.029Z,9.64
2018-03-31T09:17:11.032Z,9.65
2018-03-31T09:18:10.877Z,9.67
2018-03-31T09:19:10.843Z,9.53
2018-03-31T09:20:10.727Z,9.68
2018-03-31T09:21:10.752Z,9.70
2018-03-31T09:22:10.571Z,9.65
2018-03-31T09:23:10.561Z,9.64
2018-03-31T09:24:10.411Z,9.61
2018-03-31T09:25:10.365Z,9.61
2018-03-31T09:26:10.272Z,9.52
2018-03-31T09:27:10.280Z,9.50
2018-03-31T09:28:10.110Z,9.38
2018-03-31T09:29:10.085Z,9.38
2018-03-31T09:30:09.963Z,9.45
2018-03-31T09:31:09.995Z,9.53
2018-03-31T09:32:09.810Z,9.43
2018-03-31T09:33:09.730Z,9.38
2018-03-31T09:34:09.651Z,9.46
2018-03-31T09:35:09.611Z,9.35
2018-03-31T09:36:09.501Z,9.45
2018-03-31T09:37:09.525Z,9.53
2018-03-31T09:38:09.349Z,9.45
2018-03-31T09:39:09.332Z,9.47
2018-03-31T09:40:09.193Z,9.43
2018-03-31T09:41:09.142Z,9.42
2018-03-31T09:42:09.044Z,9.56
2018-03-31T09:43:09.053Z,9.56
2018-03-31T09:44:08.882Z,9.61
2018-03-31T09:45:08.857Z,9.53
2018-03-31T09:46:08.731Z,9.61
2018-03-31T09:47:08.775Z,9.64
2018-03-31T09:48:08.578Z,9.64
2018-03-31T09:49:08.579Z,9.61
2018-03-31T09:50:08.422Z,9.65
2018-03-31T09:51:08.386Z,9.68
2018-03-31T09:52:08.270Z,9.67
2018-03-31T09:53:08.301Z,9.68
2018-03-31T09:54:08.121Z,9.71
2018-03-31T09:55:08.109Z,9.74
2018-03-31T09:56:07.968Z,9.74
2018-03-31T09:57:07.918Z,9.78
2018-03-31T09:58:07.814Z,9.78
2018-03-31T09:59:07.829Z,9.79
2018-03-31T10:00:07.657Z,9.82
2018-03-31T10:01:07.636Z,9.83
2018-03-31T10:02:07.509Z,9.93
2018-03-31T10:03:07.446Z,9.96
2018-03-31T10:04:07.354Z,9.90
2018-03-31T10:05:07.357Z,9.89
2018-03-31T10:06:07.201Z,9.92
2018-03-31T10:07:07.163Z,9.89
2018-03-31T10:08:07.056Z,9.96
2018-03-31T10:09:07.075Z,10.03
2018-03-31T10:10:06.896Z,10.03
2018-03-31T10:11:06.883Z,10.06
2018-03-31T10:12:06.749Z,10.11
2018-03-31T10:13:06.689Z,10.13
2018-03-31T10:14:06.593Z,10.10
2018-03-31T10:15:06.512Z,10.07
2018-03-31T10:16:06.505Z,10.10
2018-03-31T10:17:06.358Z,10.06
2018-03-31T10:18:06.315Z,10.06
2018-03-31T10:19:06.204Z,9.97
2018-03-31T10:20:06.225Z,10.06
2018-03-31T10:21:06.060Z,9.96
2018-03-31T10:22:06.038Z,10.01
2018-03-31T10:23:05.901Z,10.03
2018-03-31T10:24:05.852Z,10.08
2018-03-31T10:25:05.751Z,10.08
2018-03-31T10:26:05.755Z,10.08
2018-03-31T10:27:05.598Z,10.04
2018-03-31T10:28:05.527Z,10.04
2018-03-31T10:29:05.440Z,10.13
2018-03-31T10:30:05.472Z,10.11
2018-03-31T10:31:05.295Z,10.22
2018-03-31T10:32:05.283Z,10.16
2018-03-31T10:33:05.142Z,10.15
2018-03-31T10:34:05.091Z,10.26
2018-03-31T10:35:04.989Z,10.25
2018-03-31T10:36:05.003Z,10.31
2018-03-31T10:37:04.833Z,10.43
2018-03-31T10:38:04.810Z,10.43
2018-03-31T10:39:04.684Z,10.44
2018-03-31T10:40:04.612Z,10.59
2018-03-31T10:41:04.625Z,10.63
2018-03-31T10:42:04.450Z,10.62
2018-03-31T10:43:04.433Z,10.66
2018-03-31T10:44:04.305Z,10.69
2018-03-31T10:45:04.241Z,10.74
2018-03-31T10:46:04.147Z,10.74
2018-03-31T10:47:04.080Z,10.73
2018-03-31T10:48:03.997Z,10.73
2018-03-31T10:49:03.963Z,10.83
2018-03-31T10:50:03.845Z,10.77
2018-03-31T10:51:03.877Z,10.78
2018-03-31T10:52:03.691Z,10.87
2018-03-31T10:53:03.682Z,10.88
2018-03-31T10:54:03.551Z,10.85
2018-03-31T10:55:03.488Z,10.81
2018-03-31T10:56:03.389Z,10.83
2018-03-31T10:57:03.400Z,10.87
2018-03-31T10:58:03.242Z,10.87
2018-03-31T10:59:03.173Z,10.88
2018-03-31T11:00:03.081Z,10.81
2018-03-31T11:01:03.116Z,10.74
2018-03-31T11:02:02.932Z,10.66
2018-03-31T11:03:02.926Z,10.69
2018-03-31T11:04:02.792Z,10.65
2018-03-31T11:05:03.708Z,10.63
2018-03-31T11:06:02.632Z,10.63
2018-03-31T11:07:02.644Z,10.65
2018-03-31T11:08:02.476Z,10.67
2018-03-31T11:09:02.410Z,10.67
2018-03-31T11:10:02.326Z,10.74
2018-03-31T11:11:02.364Z,10.78
2018-03-31T11:12:02.173Z,10.81
2018-03-31T11:13:02.106Z,10.88
2018-03-31T11:14:02.017Z,10.87
2018-03-31T11:15:01.955Z,10.99
2018-03-31T11:16:01.869Z,11.16
2018-03-31T11:17:01.893Z,11.18
2018-03-31T11:18:01.716Z,11.20
2018-03-31T11:19:01.700Z,11.32
2018-03-31T11:20:01.573Z,11.36
2018-03-31T11:21:01.510Z,11.39
2018-03-31T11:22:01.414Z,11.36
2018-03-31T11:23:01.422Z,11.56
2018-03-31T11:24:01.262Z,11.53
2018-03-31T11:25:01.230Z,11.57
2018-03-31T11:26:01.107Z,11.60
2018-03-31T11:27:01.138Z,11.65
2018-03-31T11:28:00.960Z,11.71
2018-03-31T11:29:00.947Z,11.78
2018-03-31T11:30:00.812Z,11.76
2018-03-31T11:31:00.758Z,11.81
2018-03-31T11:32:00.658Z,11.89
2018-03-31T11:33:00.671Z,11.84
2018-03-31T11:34:00.519Z,11.86
2018-03-31T11:35:00.474Z,11.93
2018-03-31T11:36:00.358Z,11.87
2018-03-31T11:37:00.386Z,11.93
2018-03-31T11:38:00.205Z,11.94
2018-03-31T11:39:00.199Z,11.89
2018-03-31T11:40:00.065Z,12.00
2018-03-31T11:41:00.005Z,11.98
2018-03-31T11:41:59.905Z,12.08
2018-03-31T11:42:59.913Z,12.05
2018-03-31T11:43:59.754Z,12.05
2018-03-31T11:44:59.678Z,12.21
2018-03-31T11:45:59.625Z,12.24
2018-03-31T11:46:59.530Z,12.26
2018-03-31T11:47:59.462Z,12.26
2018-03-31T11:48:59.385Z,12.31
2018-03-31T11:49:59.347Z,12.26
2018-03-31T11:50:59.227Z,12.24
2018-03-31T11:51:59.167Z,12.34
2018-03-31T11:52:59.080Z,12.27
2018-03-31T11:53:59.064Z,12.30
2018-03-31T11:54:58.929Z,12.19
2018-03-31T11:55:58.862Z,12.19
2018-03-31T11:56:58.778Z,12.27
2018-03-31T11:57:58.711Z,12.23
2018-03-31T11:58:58.630Z,12.18
2018-03-31T11:59:58.558Z,12.11
2018-03-31T12:00:58.528Z,12.08
2018-03-31T12:01:58.414Z,12.08
2018-03-31T12:02:58.328Z,12.05
2018-03-31T12:03:58.313Z,12.12
2018-03-31T12:04:58.176Z,12.08
2018-03-31T12:05:58.125Z,12.09
2018-03-31T12:06:58.030Z,12.03
2018-03-31T12:07:58.032Z,12.06
2018-03-31T12:08:57.879Z,12.12
2018-03-31T12:09:57.836Z,12.13
2018-03-31T12:10:57.733Z,12.11
2018-03-31T12:11:57.661Z,12.05
2018-03-31T12:12:57.582Z,12.05
2018-03-31T12:13:57.520Z,12.15
2018-03-31T12:14:57.426Z,12.21
2018-03-31T12:15:57.362Z,12.33
2018-03-31T12:16:57.283Z,12.41
2018-03-31T12:17:57.211Z,12.41
2018-03-31T12:18:57.130Z,12.59
2018-03-31T12:19:57.058Z,12.56
2018-03-31T12:20:57.000Z,12.69
2018-03-31T12:21:56.921Z,12.86
2018-03-31T12:22:56.830Z,12.85
2018-03-31T12:23:56.764Z,13.02
2018-03-31T12:24:56.681Z,13.07
2018-03-31T12:25:56.620Z,13.14
2018-03-31T12:26:56.532Z,13.22
2018-03-31T12:27:56.471Z,13.28
2018-03-31T12:28:56.385Z,13.27
2018-03-31T12:29:56.336Z,13.33
2018-03-31T12:30:56.241Z,13.52
2018-03-31T12:31:56.246Z,13.56
2018-03-31T12:32:56.088Z,13.59
2018-03-31T12:33:56.021Z,13.62
2018-03-31T12:34:55.933Z,13.66
2018-03-31T12:35:55.873Z,13.80
2018-03-31T12:36:55.788Z,13.94
2018-03-31T12:37:55.726Z,13.92
2018-03-31T12:38:55.639Z,14.01
2018-03-31T12:39:55.593Z,14.07
2018-03-31T12:40:55.490Z,14.03
2018-03-31T12:41:55.490Z,14.02
2018-03-31T12:42:55.342Z,13.89
2018-03-31T12:43:55.298Z,13.98
2018-03-31T12:44:55.189Z,13.83
2018-03-31T12:45:55.133Z,13.86
2018-03-31T12:46:55.049Z,13.86
2018-03-31T12:47:55.020Z,13.89
2018-03-31T12:48:54.900Z,13.89
2018-03-31T12:49:54.836Z,14.02
2018-03-31T12:50:54.752Z,13.98
2018-03-31T12:51:54.686Z,14.07
2018-03-31T12:52:54.605Z,14.09
2018-03-31T12:53:54.546Z,14.14
2018-03-31T12:54:54.458Z,14.14
2018-03-31T12:55:54.400Z,14.16
2018-03-31T12:56:54.309Z,14.17
2018-03-31T12:57:54.247Z,14.11
2018-03-31T12:58:54.165Z,14.03
2018-03-31T12:59:54.097Z,14.01
2018-03-31T13:00:54.015Z,13.92
2018-03-31T13:01:53.987Z,13.71
2018-03-31T13:02:53.868Z,13.63
2018-03-31T13:03:53.805Z,13.65
2018-03-31T13:04:53.726Z,13.66
2018-03-31T13:05:53.649Z,13.62
2018-03-31T13:06:54.581Z,13.66
2018-03-31T13:07:53.498Z,13.68
2018-03-31T13:08:53.437Z,13.58
2018-03-31T13:09:53.365Z,13.70
2018-03-31T13:10:53.283Z,13.58
2018-03-31T13:11:53.204Z,13.58